Tolhuin, Argentina

10:41 PM ART on October 21, 2014 (GMT -0300)
Ushuaia International Malvine Island | Change Station
CLOSE
Current Station
Airport
Location: Ushuaia,
Elevation: 69 ft
Nearby Weather Stations

Elev 69 ft 54.84 °S, 68.31 °W | Updated 41 minutes ago

Light Rain
Light Rain
41 °F
Feels Like 32 °F
N
21
Wind Variable Wind from WSW

Today
High -- | Low -- °F
--% Chance of Precip.
Yesterday
High -- | Low -- °F
Precip. -- in
6:05 AM 8:22 PM
Waning Crescent, 3% visible
Pressure 29.39 in
Visibility 5.0 miles
Clouds Overcast 1800 ft
Windchill 32 °F
Dew Point 39 °F
Humidity 93%
Rainfall 0.00 in
Snow Depth Not available.
UV 0 out of 12
Pollen Not available.
Air Quality Not available.
Flu Activity Not available.
METAR SAWH 220100Z 25018KT 8000 -RA OVC018 05/04 Q0995

More Conditions Fewer Conditions

Pressure 29.39 in
Visibility 5.0 miles
Clouds Overcast 1800 ft
Windchill 32 °F
Dew Point 39 °F
Humidity 93%
Rainfall 0.00 in
Snow Depth Not available.
UV 0 out of 12
Pollen Not available.
Air Quality Not available.
Flu Activity Not available.
METAR SAWH 220100Z 25018KT 8000 -RA OVC018 05/04 Q0995

More Conditions Fewer Conditions

10-Day Weather Forecast

Almanac

Astronomy

Oct. 21, 2014 Rise Set
Actual Time 6:05 AM ART 8:22 PM ART
Civil Twilight 5:26 AM ART 9:02 PM ART
Nautical Twilight 4:36 AM ART 9:52 PM ART
Astronomical Twilight 3:36 AM ART 10:53 PM ART
Moon 5:16 AM ART (10/21) 6:01 PM ART (10/21)
Length of Visible Light 15h 36m
Length of Day
14h 17m
Tomorrow will be 4m 22s longer.
Waning Crescent, 3% of the Moon is Illuminated
Today
Waning Crescent
Oct 23
New
Oct 30
First Quarter
Nov 6
Full
Nov 14
Last Quarter

Today's Extremes

Country Highs Country Lows

Community

WunderPhotos

Upload Photos

1,763,843 photos uploaded!

Nearby

Snow Depth

Not available.

Earthquake Activity

City Distance Mag. Time & Date
No recent earthquake activity has been reported nearby.
Minimum magnitude displayed is 2.5.

Coastal Water Temperatures

Place Temperature
No Stations Reporting

Nearby Weather Stations